KOSC/OSC METAR and TAF weather

Enter ICAO airport designator
Station Type Date Time Source
KOSC METAR 2020/03/29 11:16 UTC NOAA

KOSC 291116Z AUTO 08004KT 1SM UP OVC003 04/04 A2950 RMK AO2 T00380038


Station Type Date Time Source
KOSC Decoded METAR 2020/03/29 11:16 UTC NOAA

Oscoda, Oscoda-Wurtsmith Airport, MI, United States (KOSC) 44-27N 083-22W
Mar 29, 2020 - 07:16 AM EDT / 2020.03.29 1116 UTC
Wind: from the E (080 degrees) at 5 MPH (4 KT):0
Visibility: 1 mile(s):0
Sky conditions: overcast
Weather: precipitation
Temperature: 38.8 F (3.8 C)
Dew Point: 38.8 F (3.8 C)
Relative Humidity: 100%
Pressure (altimeter): 29.5 in. Hg (998 hPa)
ob: KOSC 291116Z AUTO 08004KT 1SM UP OVC003 04/04 A2950 RMK AO2 T00380038
cycle: 11

Station Type Date Time Source
KOSC TAF UTC NOAA

Error!

Example: see airport list